Meteo Giornale » Osservazioni meteo Svizzera » Les Eplatures

ore: 13:50 - Osservazioni Meteo Les Eplatures
Lat. 47° 5' N Lon. 6° 47' E Alt. 1027 metri s.l.m.

sereno Europe/Zurich

20 °C

Sereno

Temp. 24 Ore

7 °C

21 °C

Nord-Est

11.1 Km/h

Dew point 7 °C

Umidità 42 %

Visibilità  10 Km

Il sole sorge alle ore 05:49

Il sole tramonta alle ore 21:27

Data e Ora Cielo e Fenomeni T °C DP °C Um. % Pres. hPa Vis. km Vento km/h
Oggi h: 13:50 sereno Sereno 20 7 42 1022 10 NE 11.1
Oggi h: 13:20 sereno Sereno 21 8 43 1022 10 N 5.5
Oggi h: 12:50 sereno Sereno 20 7 42 1023 10 N 9.3
Oggi h: 12:20 sereno Sereno 19 4 37 1023 10 N 5.5
Oggi h: 11:50 sereno Sereno 20 8 45 1023 10 N 5.5
Oggi h: 11:20 sereno Sereno 18 7 48 1023 10 N 3.7
Oggi h: 10:50 sereno Sereno 18 7 48 1023 10 N 5.5
Oggi h: 10:20 sereno Sereno 18 8 51 1023 10 N 7.4
Oggi h: 09:50 sereno Sereno 17 7 51 1023 10 NE 9.3
Oggi h: 09:20 sereno Sereno 16 7 55 1023 10 NE 9.3
Oggi h: 08:50 sereno Sereno 16 8 58 1023 10 N 5.5
Oggi h: 08:20 sereno Sereno 15 8 62 1023 10 N 5.5
Oggi h: 07:50 sereno Sereno 14 8 67 1023 10 N 0
Oggi h: 07:20 sereno Sereno 11 7 76 1023 10 N 0
Oggi h: 06:50 sereno Sereno 9 6 81 1023 10 N 1.8
Oggi h: 05:50 sereno Sereno 8 5 81 1023 10 N 1.8
Oggi h: 05:20 sereno Sereno 7 4 81 1023 10 N 1.8
Oggi h: 04:50 sereno Sereno 8 5 81 1023 10 N 0
Oggi h: 04:20 sereno Sereno 8 5 81 1023 10 N 1.8
Oggi h: 03:50 sereno Sereno 8 5 81 1023 10 N 0
Oggi h: 03:20 sereno Sereno 8 5 81 1024 10 N 0
Oggi h: 02:50 sereno Sereno 8 4 75 1024 10 N 0
Oggi h: 02:20 sereno Sereno 9 5 75 1024 10 N 1.8
Oggi h: 01:50 sereno Sereno 10 6 76 1024 10 N 1.8
Oggi h: 00:50 sereno Sereno 10 5 71 1024 10 N 1.8
Oggi h: 00:20 sereno Sereno 10 6 76 1024 10 N 1.8
Ieri h: 23:50 sereno Sereno 12 6 66 1024 10 N 3.7
Ieri h: 23:20 sereno Sereno 13 7 66 1024 10 N 5.5
Ieri h: 22:50 sereno Sereno 13 7 66 1024 10 N 0
Ieri h: 22:20 sereno Sereno 15 6 54 1024 10 N/NE 7.4
Ieri h: 21:50 sereno Sereno 16 6 51 1024 10 N 5.5
Ieri h: 21:20 sereno Sereno 17 6 48 1024 10 E 7.4
Ieri h: 20:50 sereno Sereno 18 6 45 1024 10 E 9.3
Ieri h: 20:20 sereno Sereno 18 6 45 1024 10 E 9.3
Ieri h: 19:50 sereno Sereno 19 5 39 1024 10 E/NE 14.8
Ieri h: 19:20 sereno Sereno 20 4 34 1024 10 E/NE 14.8
Ieri h: 18:50 sereno Sereno 20 5 37 1024 10 E 11.1
Ieri h: 17:50 sereno Sereno 20 5 37 1024 10 E/NE 11.1
Ieri h: 17:20 sereno Sereno 21 6 37 1025 10 N 9.3
Ieri h: 16:50 sereno Sereno 20 6 39 1025 10 E/NE 11.1
Ieri h: 16:20 sereno Sereno 21 8 43 1025 10 E 9.3
Ieri h: 15:50 sereno Sereno 21 8 43 1025 10 E 11.1
Ieri h: 15:20 sereno Sereno 21 8 43 1025 10 E 13
Ieri h: 14:50 sereno Sereno 19 5 39 1025 10 E 11.1